EVRA/RIX METAR and TAF weather

Enter ICAO airport designator
Station Type Date Time Source
EVRA METAR 2020/03/29 12:20 UTC NOAA

EVRA 291220Z 35018G30KT CAVOK 03/M10 Q1019 R36/190095 NOSIG


Station Type Date Time Source
EVRA Decoded METAR 2020/03/29 12:20 UTC NOAA

Riga International Airport, Latvia (EVRA) 56-55N 023-58E
Mar 29, 2020 - 08:20 AM EDT / 2020.03.29 1220 UTC
Wind: from the N (350 degrees) at 21 MPH (18 KT) gusting to 35 MPH (30 KT):0
Visibility: greater than 7 mile(s):0
Temperature: 37 F (3 C)
Dew Point: 14 F (-10 C)
Relative Humidity: 37%
Pressure (altimeter): 30.09 in. Hg (1019 hPa)
ob: EVRA 291220Z 35018G30KT CAVOK 03/M10 Q1019 R36/190095 NOSIG
cycle: 12

Station Type Date Time Source
EVRA TAF 2020/03/29 12:12 UTC NOAA

TAF TAF EVRA 291110Z 2912/3012 36017G27KT 9999 SCT020
TEMPO 2912/2918 35020G30KT
BECMG 2919/2921 36007KT
TEMPO 2921/3003 SCT020CB
BECMG 3006/3008 23007KT
TEMPO 3008/3012 SCT020CB

Example: see airport list